Time,TemperatureF,DewpointF,PressureIn,WindDirection,WindDirectionDegrees,WindSpeedMPH,WindSpeedGustMPH,Humidity,HourlyPrecipIn,Conditions,Clouds,dailyrainin,SolarRadiationWatts/m^2,SoftwareType,DateUTC
2013-02-15 00:00:00,22.1,13.1,30.41,SSE,148,2.7,5.0,68,0.00,OVC,OVC,0.00,0.0,WeatherDisplay:10.37,2013-02-15 07:00:00,
2013-02-15 00:05:00,22.0,13.0,30.43,SE,144,8.2,11.0,68,0.00,OVC,OVC,0.00,0.0,WeatherDisplay:10.37,2013-02-15 07:05:00,
2013-02-15 00:10:00,21.8,12.9,30.42,SE,140,3.2,5.8,68,0.00,OVC,OVC,0.00,0.0,WeatherDisplay:10.37,2013-02-15 07:10:00,
2013-02-15 00:15:00,21.8,12.9,30.42,SE,132,4.7,6.9,68,0.00,OVC,OVC,0.00,0.0,WeatherDisplay:10.37,2013-02-15 07:15:00,
2013-02-15 00:20:00,21.7,12.8,30.42,SE,140,3.4,6.9,68,0.00,OVC,OVC,0.00,0.0,WeatherDisplay:10.37,2013-02-15 07:20:00,
2013-02-15 00:25:00,21.6,12.7,30.42,SE,144,3.3,6.9,68,0.00,OVC,OVC,0.00,0.0,WeatherDisplay:10.37,2013-02-15 07:25:00,
2013-02-15 00:30:00,21.5,12.6,30.43,SE,132,1.4,3.4,68,0.00,OVC,OVC,0.00,0.0,WeatherDisplay:10.37,2013-02-15 07:30:00,
2013-02-15 00:35:00,21.4,12.1,30.43,ESE,110,1.9,3.4,67,0.00,OVC,OVC,0.00,0.0,WeatherDisplay:10.37,2013-02-15 07:35:00,
2013-02-15 00:40:00,21.3,12.0,30.43,SE,131,0.6,2.3,67,0.00,OVC,OVC,0.00,0.0,WeatherDisplay:10.37,2013-02-15 07:40:00,
2013-02-15 00:45:00,21.2,11.9,30.43,SE,131,0.3,2.3,67,0.00,OVC,OVC,0.00,0.0,WeatherDisplay:10.37,2013-02-15 07:45:00,
2013-02-15 00:50:00,21.1,11.8,30.43,SE,130,0.5,2.3,67,0.00,OVC,OVC,0.00,0.0,WeatherDisplay:10.37,2013-02-15 07:50:00,
2013-02-15 00:55:00,21.0,11.8,30.43,SE,131,0.3,1.0,67,0.00,OVC,OVC,0.00,0.0,WeatherDisplay:10.37,2013-02-15 07:55:00,
2013-02-15 01:00:00,21.0,11.8,30.43,SE,130,0.1,1.1,67,0.00,OVC,OVC,0.00,0.0,WeatherDisplay:10.37,2013-02-15 08:00:00,
2013-02-15 01:05:00,20.9,11.7,30.43,SE,131,0.8,1.1,67,0.00,BKN,BKN,0.00,0.0,WeatherDisplay:10.37,2013-02-15 08:05:00,
2013-02-15 01:10:00,20.8,11.6,30.43,SE,131,0.0,0.0,67,0.00,BKN,BKN,0.00,0.0,WeatherDisplay:10.37,2013-02-15 08:10:00,
2013-02-15 01:15:00,20.7,11.5,30.43,SE,130,0.0,0.0,67,0.00,BKN,BKN,0.00,0.0,WeatherDisplay:10.37,2013-02-15 08:15:00,
2013-02-15 01:20:00,20.6,11.4,30.43,SE,130,0.0,0.0,67,0.00,BKN,BKN,0.00,0.0,WeatherDisplay:10.37,2013-02-15 08:20:00,
2013-02-15 01:25:00,20.5,11.3,30.43,SE,131,0.2,1.1,67,0.00,BKN,BKN,0.00,0.0,WeatherDisplay:10.37,2013-02-15 08:25:00,
2013-02-15 01:30:00,20.4,11.2,30.44,SE,130,0.0,1.1,67,0.00,BKN,BKN,0.00,0.0,WeatherDisplay:10.37,2013-02-15 08:30:00,
2013-02-15 01:35:00,20.3,11.1,30.44,SE,130,0.3,1.1,67,0.00,BKN,BKN,0.00,0.0,WeatherDisplay:10.37,2013-02-15 08:35:00,
2013-02-15 01:40:00,20.2,11.0,30.44,SE,131,0.2,0.0,67,0.00,BKN,BKN,0.00,0.0,WeatherDisplay:10.37,2013-02-15 08:40:00,
2013-02-15 01:45:00,20.0,11.1,30.44,SE,131,0.2,0.0,68,0.00,BKN,BKN,0.00,0.0,WeatherDisplay:10.37,2013-02-15 08:45:00,
2013-02-15 01:50:00,19.9,10.7,30.44,SE,131,0.0,0.0,67,0.00,BKN,BKN,0.00,0.0,WeatherDisplay:10.37,2013-02-15 08:50:00,
2013-02-15 01:55:00,19.8,10.9,30.44,SE,130,0.0,0.0,68,0.00,BKN,BKN,0.00,0.0,WeatherDisplay:10.37,2013-02-15 08:55:00,
2013-02-15 02:00:00,19.7,10.8,30.44,SE,131,0.0,0.0,68,0.00,BKN,BKN,0.00,0.0,WeatherDisplay:10.37,2013-02-15 09:00:00,
2013-02-15 02:05:00,19.7,10.8,30.44,SE,131,0.0,0.0,68,0.00,OVC,OVC,0.00,0.0,WeatherDisplay:10.37,2013-02-15 09:05:00,
2013-02-15 02:10:00,19.7,10.8,30.44,SE,130,0.0,0.0,68,0.00,OVC,OVC,0.00,0.0,WeatherDisplay:10.37,2013-02-15 09:10:00,
2013-02-15 02:15:00,19.5,10.6,30.44,SE,131,0.0,0.0,68,0.00,OVC,OVC,0.00,0.0,WeatherDisplay:10.37,2013-02-15 09:15:00,
2013-02-15 02:20:00,19.3,10.5,30.44,SE,131,0.0,0.0,68,0.00,OVC,OVC,0.00,0.0,WeatherDisplay:10.37,2013-02-15 09:20:00,
2013-02-15 02:25:00,19.1,10.6,30.44,SE,130,0.0,0.0,69,0.00,OVC,OVC,0.00,0.0,WeatherDisplay:10.37,2013-02-15 09:25:00,
2013-02-15 02:30:00,19.0,10.5,30.44,SE,131,0.0,0.0,69,0.00,OVC,OVC,0.00,0.0,WeatherDisplay:10.37,2013-02-15 09:30:00,
2013-02-15 02:35:00,18.8,10.3,30.44,SE,130,0.0,0.0,69,0.00,OVC,OVC,0.00,0.0,WeatherDisplay:10.37,2013-02-15 09:35:00,
2013-02-15 02:40:00,18.6,10.1,30.44,SE,131,0.0,0.0,69,0.00,OVC,OVC,0.00,0.0,WeatherDisplay:10.37,2013-02-15 09:40:00,
2013-02-15 02:45:00,18.5,10.0,30.44,SE,131,0.0,0.0,69,0.00,OVC,OVC,0.00,0.0,WeatherDisplay:10.37,2013-02-15 09:45:00,
2013-02-15 02:50:00,18.3,10.1,30.45,SE,131,0.0,0.0,70,0.00,OVC,OVC,0.00,0.0,WeatherDisplay:10.37,2013-02-15 09:50:00,
2013-02-15 02:55:00,18.1,10.0,30.45,SE,131,1.2,2.3,70,0.00,OVC,OVC,0.00,0.0,WeatherDisplay:10.37,2013-02-15 09:55:00,
2013-02-15 03:00:00,18.0,10.2,30.45,SE,130,0.0,0.0,71,0.00,OVC,OVC,0.00,0.0,WeatherDisplay:10.37,2013-02-15 10:00:00,
2013-02-15 03:05:00,18.0,10.2,30.44,SE,130,0.0,0.0,71,0.00,-SN,-SN,0.00,0.0,WeatherDisplay:10.37,2013-02-15 10:05:00,
2013-02-15 03:10:00,18.0,10.5,30.44,SE,131,0.0,0.0,72,0.00,-SN,-SN,0.00,0.0,WeatherDisplay:10.37,2013-02-15 10:10:00,
2013-02-15 03:15:00,17.9,10.4,30.44,SE,131,0.0,0.0,72,0.00,-SN,-SN,0.00,0.0,WeatherDisplay:10.37,2013-02-15 10:15:00,
2013-02-15 03:20:00,17.8,10.3,30.45,SE,131,0.0,0.0,72,0.00,-SN,-SN,0.00,0.0,WeatherDisplay:10.37,2013-02-15 10:20:00,
2013-02-15 03:25:00,17.7,10.2,30.45,SE,131,0.0,0.0,72,0.00,-SN,-SN,0.00,0.0,WeatherDisplay:10.37,2013-02-15 10:25:00,
2013-02-15 03:30:00,17.5,10.0,30.45,SE,131,0.0,0.0,72,0.00,-SN,-SN,0.00,0.0,WeatherDisplay:10.37,2013-02-15 10:30:00,
2013-02-15 03:35:00,17.3,9.8,30.44,SE,131,0.0,0.0,72,0.00,-SN,-SN,0.00,0.0,WeatherDisplay:10.37,2013-02-15 10:35:00,
2013-02-15 03:40:00,17.3,10.1,30.44,SE,131,0.0,0.0,73,0.00,-SN,-SN,0.00,0.0,WeatherDisplay:10.37,2013-02-15 10:40:00,
2013-02-15 03:45:00,17.1,9.9,30.44,SE,131,0.0,0.0,73,0.00,-SN,-SN,0.00,0.0,WeatherDisplay:10.37,2013-02-15 10:45:00,
2013-02-15 03:50:00,17.0,9.8,30.44,SE,131,0.0,0.0,73,0.00,-SN,-SN,0.00,0.0,WeatherDisplay:10.37,2013-02-15 10:50:00,
2013-02-15 03:55:00,16.9,10.0,30.44,SE,131,0.0,0.0,74,0.00,-SN,-SN,0.00,0.0,WeatherDisplay:10.37,2013-02-15 10:55:00,
2013-02-15 04:00:00,16.8,9.9,30.44,SE,131,0.0,0.0,74,0.00,-SN,-SN,0.00,0.0,WeatherDisplay:10.37,2013-02-15 11:00:00,
2013-02-15 04:05:00,16.7,9.8,30.46,SE,131,0.0,0.0,74,0.00,BKN,BKN,0.00,0.0,WeatherDisplay:10.37,2013-02-15 11:05:00,
2013-02-15 04:10:00,16.7,10.1,30.45,SE,131,0.0,0.0,75,0.00,BKN,BKN,0.00,0.0,WeatherDisplay:10.37,2013-02-15 11:10:00,
2013-02-15 04:15:00,16.6,10.1,30.46,SE,130,0.0,0.0,75,0.00,BKN,BKN,0.00,0.0,WeatherDisplay:10.37,2013-02-15 11:15:00,
2013-02-15 04:20:00,16.5,10.0,30.46,SE,130,0.0,0.0,75,0.00,BKN,BKN,0.00,0.0,WeatherDisplay:10.37,2013-02-15 11:20:00,
2013-02-15 04:25:00,16.4,10.2,30.46,SE,131,0.0,0.0,76,0.00,BKN,BKN,0.00,0.0,WeatherDisplay:10.37,2013-02-15 11:25:00,
2013-02-15 04:30:00,16.3,10.1,30.45,SE,131,0.6,1.1,76,0.00,BKN,BKN,0.00,0.0,WeatherDisplay:10.37,2013-02-15 11:30:00,
2013-02-15 04:35:00,16.3,10.4,30.45,SE,130,0.0,1.1,77,0.00,BKN,BKN,0.00,0.0,WeatherDisplay:10.37,2013-02-15 11:35:00,
2013-02-15 04:40:00,16.3,10.4,30.45,SE,130,0.4,2.0,77,0.00,BKN,BKN,0.00,0.0,WeatherDisplay:10.37,2013-02-15 11:40:00,
2013-02-15 04:45:00,16.3,10.4,30.45,SE,131,0.0,0.0,77,0.00,BKN,BKN,0.00,0.0,WeatherDisplay:10.37,2013-02-15 11:45:00,
2013-02-15 04:50:00,16.3,10.4,30.45,SE,130,0.3,1.1,77,0.00,BKN,BKN,0.00,0.0,WeatherDisplay:10.37,2013-02-15 11:50:00,
2013-02-15 04:55:00,16.3,10.6,30.45,SE,140,0.5,4.0,78,0.00,BKN,BKN,0.00,0.0,WeatherDisplay:10.37,2013-02-15 11:55:00,
2013-02-15 05:00:00,16.4,10.7,30.45,SW,225,1.2,3.4,78,0.00,BKN,BKN,0.00,0.0,WeatherDisplay:10.37,2013-02-15 12:00:00,
2013-02-15 05:05:00,16.4,10.7,30.45,SW,221,1.7,3.4,78,0.00,OVC,OVC,0.00,0.0,WeatherDisplay:10.37,2013-02-15 12:05:00,
2013-02-15 05:10:00,16.5,10.8,30.44,SW,221,0.8,2.3,78,0.00,OVC,OVC,0.00,0.0,WeatherDisplay:10.37,2013-02-15 12:10:00,
2013-02-15 05:15:00,16.5,11.1,30.45,SW,222,1.7,3.4,79,0.00,OVC,OVC,0.00,0.0,WeatherDisplay:10.37,2013-02-15 12:15:00,
2013-02-15 05:20:00,16.6,11.2,30.45,SW,221,0.7,3.4,79,0.00,OVC,OVC,0.00,0.0,WeatherDisplay:10.37,2013-02-15 12:20:00,
2013-02-15 05:25:00,16.6,11.2,30.45,SW,218,1.3,3.0,79,0.00,OVC,OVC,0.00,0.0,WeatherDisplay:10.37,2013-02-15 12:25:00,
2013-02-15 05:30:00,16.7,11.3,30.45,SW,219,0.0,0.0,79,0.00,OVC,OVC,0.00,0.0,WeatherDisplay:10.37,2013-02-15 12:30:00,
2013-02-15 05:35:00,16.7,11.3,30.45,SW,219,0.0,0.0,79,0.00,OVC,OVC,0.00,0.0,WeatherDisplay:10.37,2013-02-15 12:35:00,
2013-02-15 05:40:00,16.8,11.4,30.45,SW,219,0.0,0.0,79,0.00,OVC,OVC,0.00,0.0,WeatherDisplay:10.37,2013-02-15 12:40:00,
2013-02-15 05:45:00,16.8,11.4,30.45,SW,219,0.0,0.0,79,0.00,OVC,OVC,0.00,0.0,WeatherDisplay:10.37,2013-02-15 12:45:00,
2013-02-15 05:50:00,16.9,11.5,30.45,SW,219,0.8,3.0,79,0.00,OVC,OVC,0.00,0.0,WeatherDisplay:10.37,2013-02-15 12:50:00,
2013-02-15 05:55:00,16.9,11.5,30.45,SSW,210,0.7,3.4,79,0.00,OVC,OVC,0.00,0.0,WeatherDisplay:10.37,2013-02-15 12:55:00,
2013-02-15 06:00:00,17.1,11.7,30.46,SSW,210,0.0,3.4,79,0.00,OVC,OVC,0.00,0.0,WeatherDisplay:10.37,2013-02-15 13:00:00,
2013-02-15 06:05:00,17.2,11.8,30.45,SSW,210,0.0,0.0,79,0.00,OVC,OVC,0.00,0.0,WeatherDisplay:10.37,2013-02-15 13:05:00,
2013-02-15 06:10:00,17.2,11.8,30.46,SSW,210,0.9,1.1,79,0.00,OVC,OVC,0.00,0.0,WeatherDisplay:10.37,2013-02-15 13:10:00,
2013-02-15 06:15:00,17.3,11.9,30.46,SSW,210,0.2,2.3,79,0.00,OVC,OVC,0.00,0.0,WeatherDisplay:10.37,2013-02-15 13:15:00,
2013-02-15 06:20:00,17.4,12.0,30.46,SSW,209,1.6,3.4,79,0.00,OVC,OVC,0.00,0.0,WeatherDisplay:10.37,2013-02-15 13:20:00,
2013-02-15 06:25:00,17.3,11.9,30.47,South,182,1.5,2.3,79,0.00,OVC,OVC,0.00,0.0,WeatherDisplay:10.37,2013-02-15 13:25:00,
2013-02-15 06:30:00,17.3,11.9,30.47,South,182,1.2,2.3,79,0.00,OVC,OVC,0.00,0.0,WeatherDisplay:10.37,2013-02-15 13:30:00,
2013-02-15 06:35:00,17.2,11.8,30.47,South,182,0.0,1.1,79,0.00,OVC,OVC,0.00,0.0,WeatherDisplay:10.37,2013-02-15 13:35:00,
2013-02-15 06:40:00,17.1,11.7,30.48,South,182,0.0,0.0,79,0.00,OVC,OVC,0.00,0.0,WeatherDisplay:10.37,2013-02-15 13:40:00,
2013-02-15 06:45:00,17.1,11.7,30.48,South,182,0.2,2.3,79,0.00,OVC,OVC,0.00,0.0,WeatherDisplay:10.37,2013-02-15 13:45:00,
2013-02-15 06:50:00,17.1,11.7,30.48,South,182,0.0,0.0,79,0.00,OVC,OVC,0.00,0.0,WeatherDisplay:10.37,2013-02-15 13:50:00,
2013-02-15 06:55:00,17.0,11.6,30.48,South,182,0.0,0.0,79,0.00,OVC,OVC,0.00,0.0,WeatherDisplay:10.37,2013-02-15 13:55:00,
2013-02-15 07:00:00,17.1,11.7,30.49,South,182,0.0,0.0,79,0.00,OVC,OVC,0.00,5.0,WeatherDisplay:10.37,2013-02-15 14:00:00,
2013-02-15 07:05:00,17.1,11.7,30.48,South,182,0.0,0.0,79,0.00,OVC,OVC,0.00,11.0,WeatherDisplay:10.37,2013-02-15 14:05:00,
2013-02-15 07:10:00,17.1,11.7,30.49,South,182,0.2,1.1,79,0.00,OVC,OVC,0.00,16.0,WeatherDisplay:10.37,2013-02-15 14:10:00,
2013-02-15 07:15:00,17.2,11.8,30.49,South,182,0.2,1.1,79,0.00,OVC,OVC,0.00,28.0,WeatherDisplay:10.37,2013-02-15 14:15:00,
2013-02-15 07:20:00,17.3,11.9,30.49,South,182,0.0,1.1,79,0.00,OVC,OVC,0.00,39.0,WeatherDisplay:10.37,2013-02-15 14:20:00,
2013-02-15 07:25:00,17.3,11.9,30.49,South,182,0.0,0.0,79,0.00,OVC,OVC,0.00,49.0,WeatherDisplay:10.37,2013-02-15 14:25:00,
2013-02-15 07:30:00,17.4,12.0,30.50,South,182,0.3,1.1,79,0.00,OVC,OVC,0.00,56.0,WeatherDisplay:10.37,2013-02-15 14:30:00,
2013-02-15 07:35:00,17.5,12.1,30.48,South,182,0.0,0.0,79,0.00,OVC,OVC,0.00,65.0,WeatherDisplay:10.37,2013-02-15 14:35:00,
2013-02-15 07:40:00,17.6,12.2,30.48,South,182,0.0,1.1,79,0.00,OVC,OVC,0.00,76.0,WeatherDisplay:10.37,2013-02-15 14:40:00,
2013-02-15 07:45:00,17.8,12.4,30.48,South,182,0.7,1.1,79,0.00,OVC,OVC,0.00,74.0,WeatherDisplay:10.37,2013-02-15 14:45:00,
2013-02-15 07:50:00,18.0,12.6,30.48,South,182,0.0,0.0,79,0.00,OVC,OVC,0.00,83.0,WeatherDisplay:10.37,2013-02-15 14:50:00,
2013-02-15 07:55:00,18.2,12.8,30.48,South,182,1.4,3.4,79,0.00,OVC,OVC,0.00,91.0,WeatherDisplay:10.37,2013-02-15 14:55:00,
2013-02-15 08:00:00,18.5,13.1,30.48,South,183,1.2,3.4,79,0.00,OVC,OVC,0.00,100.0,WeatherDisplay:10.37,2013-02-15 15:00:00,
2013-02-15 08:05:00,18.9,13.5,30.48,South,183,0.7,2.3,79,0.00,BKN,BKN,0.00,93.0,WeatherDisplay:10.37,2013-02-15 15:05:00,
2013-02-15 08:10:00,19.2,13.5,30.48,South,183,1.3,3.4,78,0.00,BKN,BKN,0.00,114.0,WeatherDisplay:10.37,2013-02-15 15:10:00,
2013-02-15 08:15:00,19.4,13.7,30.49,South,183,1.3,2.3,78,0.00,BKN,BKN,0.00,100.0,WeatherDisplay:10.37,2013-02-15 15:15:00,
2013-02-15 08:20:00,19.5,13.5,30.48,South,183,1.2,3.4,77,0.00,BKN,BKN,0.00,107.0,WeatherDisplay:10.37,2013-02-15 15:20:00,
2013-02-15 08:25:00,19.7,13.7,30.48,South,183,1.4,3.0,77,0.00,BKN,BKN,0.00,104.0,WeatherDisplay:10.37,2013-02-15 15:25:00,
2013-02-15 08:30:00,19.7,13.4,30.48,South,184,1.8,3.4,76,0.00,BKN,BKN,0.00,107.0,WeatherDisplay:10.37,2013-02-15 15:30:00,
2013-02-15 08:35:00,20.0,13.6,30.48,South,184,0.0,1.1,76,0.00,BKN,BKN,0.00,105.0,WeatherDisplay:10.37,2013-02-15 15:35:00,
2013-02-15 08:40:00,20.2,13.8,30.48,South,184,0.9,2.3,76,0.00,BKN,BKN,0.00,105.0,WeatherDisplay:10.37,2013-02-15 15:40:00,
2013-02-15 08:45:00,20.4,13.7,30.48,South,184,1.7,3.4,75,0.00,BKN,BKN,0.00,127.0,WeatherDisplay:10.37,2013-02-15 15:45:00,
2013-02-15 08:50:00,20.7,13.7,30.48,South,184,1.0,3.4,74,0.00,BKN,BKN,0.00,141.0,WeatherDisplay:10.37,2013-02-15 15:50:00,
2013-02-15 08:55:00,21.1,14.1,30.48,South,184,2.2,3.4,74,0.00,BKN,BKN,0.00,134.0,WeatherDisplay:10.37,2013-02-15 15:55:00,
2013-02-15 09:00:00,21.3,14.0,30.48,SSW,195,0.9,3.4,73,0.00,BKN,BKN,0.00,163.0,WeatherDisplay:10.37,2013-02-15 16:00:00,
2013-02-15 09:05:00,21.7,14.4,30.48,SSW,192,2.0,3.4,73,0.00,BKN,BKN,0.00,204.0,WeatherDisplay:10.37,2013-02-15 16:05:00,
2013-02-15 09:10:00,22.0,14.3,30.48,South,180,1.4,3.4,72,0.00,BKN,BKN,0.00,209.0,WeatherDisplay:10.37,2013-02-15 16:10:00,
2013-02-15 09:15:00,22.3,14.3,30.47,South,184,1.8,3.0,71,0.00,BKN,BKN,0.00,185.0,WeatherDisplay:10.37,2013-02-15 16:15:00,
2013-02-15 09:20:00,22.5,14.2,30.46,SSW,194,1.7,3.4,70,0.00,BKN,BKN,0.00,221.0,WeatherDisplay:10.37,2013-02-15 16:20:00,
2013-02-15 09:25:00,22.8,14.5,30.46,SW,214,2.2,3.4,70,0.00,BKN,BKN,0.00,381.0,WeatherDisplay:10.37,2013-02-15 16:25:00,
2013-02-15 09:30:00,23.3,14.6,30.46,SW,214,1.1,3.4,69,0.00,BKN,BKN,0.00,441.0,WeatherDisplay:10.37,2013-02-15 16:30:00,
2013-02-15 09:35:00,23.6,14.6,30.46,SSW,198,1.6,2.3,68,0.00,BKN,BKN,0.00,454.0,WeatherDisplay:10.37,2013-02-15 16:35:00,
2013-02-15 09:40:00,24.0,14.6,30.46,SSW,210,3.5,5.0,67,0.00,BKN,BKN,0.00,478.0,WeatherDisplay:10.37,2013-02-15 16:40:00,
2013-02-15 09:45:00,24.3,14.9,30.46,SSW,194,2.7,4.6,67,0.00,BKN,BKN,0.00,478.0,WeatherDisplay:10.37,2013-02-15 16:45:00,
2013-02-15 09:50:00,25.0,15.9,30.45,SSW,194,1.1,3.0,68,0.00,BKN,BKN,0.00,497.0,WeatherDisplay:10.37,2013-02-15 16:50:00,
2013-02-15 09:55:00,25.3,15.5,30.45,SSW,192,1.6,4.0,66,0.00,BKN,BKN,0.00,512.0,WeatherDisplay:10.37,2013-02-15 16:55:00,
2013-02-15 10:00:00,25.7,15.9,30.44,SSW,198,0.1,3.4,66,0.00,BKN,BKN,0.00,519.0,WeatherDisplay:10.37,2013-02-15 17:00:00,
2013-02-15 10:05:00,26.6,16.4,30.43,SSW,197,1.7,3.4,65,0.00,SCT,SCT,0.00,533.0,WeatherDisplay:10.37,2013-02-15 17:05:00,
2013-02-15 10:10:00,27.1,16.9,30.43,SSW,194,2.1,3.4,65,0.00,SCT,SCT,0.00,541.0,WeatherDisplay:10.37,2013-02-15 17:10:00,
2013-02-15 10:15:00,27.5,16.5,30.43,SSW,196,1.4,3.4,63,0.00,SCT,SCT,0.00,550.0,WeatherDisplay:10.37,2013-02-15 17:15:00,
2013-02-15 10:20:00,28.3,17.7,30.42,South,186,1.9,4.0,64,0.00,SCT,SCT,0.00,563.0,WeatherDisplay:10.37,2013-02-15 17:20:00,
2013-02-15 10:25:00,28.8,17.0,30.41,SSW,200,0.7,2.3,61,0.00,SCT,SCT,0.00,571.0,WeatherDisplay:10.37,2013-02-15 17:25:00,
2013-02-15 10:30:00,29.1,16.9,30.41,South,186,1.4,3.4,60,0.00,SCT,SCT,0.00,585.0,WeatherDisplay:10.37,2013-02-15 17:30:00,
2013-02-15 10:35:00,29.6,17.4,30.41,WSW,237,3.3,4.6,60,0.00,SCT,SCT,0.00,587.0,WeatherDisplay:10.37,2013-02-15 17:35:00,
2013-02-15 10:40:00,29.9,16.9,30.40,SSW,211,2.6,4.6,58,0.00,SCT,SCT,0.00,580.0,WeatherDisplay:10.37,2013-02-15 17:40:00,
2013-02-15 10:45:00,30.6,17.6,30.39,WSW,251,1.8,5.8,58,0.01,RA,RA,0.01,619.0,WeatherDisplay:10.37,2013-02-15 17:45:00,
2013-02-15 10:50:00,31.4,18.3,30.39,WSW,245,1.3,3.4,58,0.01,RA,RA,0.01,606.0,WeatherDisplay:10.37,2013-02-15 17:50:00,
2013-02-15 10:55:00,31.8,17.9,30.39,SSW,208,2.9,5.8,56,0.01,SCT,SCT,0.01,610.0,WeatherDisplay:10.37,2013-02-15 17:55:00,
2013-02-15 11:00:00,32.1,17.7,30.38,SSW,202,0.8,3.4,55,0.01,SCT,SCT,0.01,624.0,WeatherDisplay:10.37,2013-02-15 18:00:00,
2013-02-15 11:05:00,32.5,17.2,30.39,SSW,202,0.3,2.3,53,0.01,SCT,SCT,0.01,642.0,WeatherDisplay:10.37,2013-02-15 18:05:00,
2013-02-15 11:10:00,32.9,16.7,30.39,NNW,335,2.0,4.6,51,0.01,SCT,SCT,0.01,631.0,WeatherDisplay:10.37,2013-02-15 18:10:00,
2013-02-15 11:15:00,32.8,16.2,30.39,SW,215,3.0,4.6,50,0.01,SCT,SCT,0.01,696.0,WeatherDisplay:10.37,2013-02-15 18:15:00,
2013-02-15 11:20:00,33.2,17.0,30.39,NW,311,1.8,3.4,51,0.01,SCT,SCT,0.01,617.0,WeatherDisplay:10.37,2013-02-15 18:20:00,
2013-02-15 11:25:00,33.4,16.3,30.39,SSW,212,3.1,4.0,49,0.02,RA,RA,0.02,506.0,WeatherDisplay:10.37,2013-02-15 18:25:00,
2013-02-15 11:30:00,33.5,16.4,30.37,SSW,213,0.0,1.1,49,0.02,RA,RA,0.02,483.0,WeatherDisplay:10.37,2013-02-15 18:30:00,
2013-02-15 11:35:00,34.4,17.2,30.37,SSW,213,0.0,0.0,49,0.02,SCT,SCT,0.02,612.0,WeatherDisplay:10.37,2013-02-15 18:35:00,
2013-02-15 11:40:00,34.7,16.0,30.37,NNW,329,1.4,4.0,46,0.02,SCT,SCT,0.02,594.0,WeatherDisplay:10.37,2013-02-15 18:40:00,
2013-02-15 11:45:00,34.8,15.6,30.37,NNE,15,0.7,2.3,45,0.01,SCT,SCT,0.02,418.0,WeatherDisplay:10.37,2013-02-15 18:45:00,
2013-02-15 11:50:00,35.1,15.9,30.37,NW,317,2.5,4.0,45,0.01,SCT,SCT,0.02,775.0,WeatherDisplay:10.37,2013-02-15 18:50:00,
2013-02-15 11:55:00,34.8,15.6,30.37,NW,317,0.1,1.0,45,0.01,SCT,SCT,0.02,626.0,WeatherDisplay:10.37,2013-02-15 18:55:00,
2013-02-15 12:00:00,35.3,16.6,30.37,NNW,329,1.8,3.4,46,0.01,SCT,SCT,0.02,234.0,WeatherDisplay:10.37,2013-02-15 19:00:00,
2013-02-15 12:05:00,35.6,16.8,30.37,WNW,292,0.8,3.0,46,0.01,BKN,BKN,0.02,445.0,WeatherDisplay:10.37,2013-02-15 19:05:00,
2013-02-15 12:10:00,35.6,15.8,30.37,West,265,1.0,3.4,44,0.01,BKN,BKN,0.02,464.0,WeatherDisplay:10.37,2013-02-15 19:10:00,
2013-02-15 12:15:00,35.6,16.3,30.37,ESE,113,2.5,3.4,45,0.01,BKN,BKN,0.02,649.0,WeatherDisplay:10.37,2013-02-15 19:15:00,
2013-02-15 12:20:00,35.6,15.8,30.37,ESE,113,0.3,3.0,44,0.01,BKN,BKN,0.02,359.0,WeatherDisplay:10.37,2013-02-15 19:20:00,
2013-02-15 12:25:00,35.9,15.5,30.37,West,274,0.7,6.0,43,0.00,BKN,BKN,0.02,526.0,WeatherDisplay:10.37,2013-02-15 19:25:00,
2013-02-15 12:30:00,36.6,17.2,30.36,North,350,4.3,10.0,45,0.00,BKN,BKN,0.02,508.0,WeatherDisplay:10.37,2013-02-15 19:30:00,
2013-02-15 12:35:00,36.8,16.4,30.35,North,355,2.3,3.4,43,0.00,BKN,BKN,0.02,566.0,WeatherDisplay:10.37,2013-02-15 19:35:00,
2013-02-15 12:40:00,37.1,16.6,30.35,NE,44,2.7,9.2,43,0.00,BKN,BKN,0.02,434.0,WeatherDisplay:10.37,2013-02-15 19:40:00,
2013-02-15 12:45:00,37.4,15.8,30.35,North,360,0.4,1.1,41,0.00,BKN,BKN,0.02,643.0,WeatherDisplay:10.37,2013-02-15 19:45:00,
2013-02-15 12:50:00,37.9,15.7,30.35,NW,326,4.3,5.8,40,0.00,BKN,BKN,0.02,548.0,WeatherDisplay:10.37,2013-02-15 19:50:00,
2013-02-15 12:55:00,38.2,15.4,30.35,West,279,3.8,5.8,39,0.00,BKN,BKN,0.02,483.0,WeatherDisplay:10.37,2013-02-15 19:55:00,
2013-02-15 13:00:00,38.1,14.7,30.35,North,349,5.4,10.3,38,0.00,BKN,BKN,0.02,545.0,WeatherDisplay:10.37,2013-02-15 20:00:00,
2013-02-15 13:05:00,38.3,15.5,30.35,North,351,3.6,5.8,39,0.00,OVC,OVC,0.02,506.0,WeatherDisplay:10.37,2013-02-15 20:05:00,
2013-02-15 13:10:00,38.5,15.1,30.34,WNW,291,6.2,11.5,38,0.00,OVC,OVC,0.02,366.0,WeatherDisplay:10.37,2013-02-15 20:10:00,
2013-02-15 13:15:00,38.4,15.0,30.35,WNW,296,5.2,6.9,38,0.00,OVC,OVC,0.02,432.0,WeatherDisplay:10.37,2013-02-15 20:15:00,
2013-02-15 13:20:00,38.2,14.2,30.35,NNW,340,3.8,9.2,37,0.00,OVC,OVC,0.02,366.0,WeatherDisplay:10.37,2013-02-15 20:20:00,
2013-02-15 13:25:00,38.4,15.6,30.35,East,91,4.6,10.3,39,0.00,OVC,OVC,0.02,322.0,WeatherDisplay:10.37,2013-02-15 20:25:00,
2013-02-15 13:30:00,38.2,15.4,30.35,NNE,32,6.3,13.0,39,0.00,OVC,OVC,0.02,524.0,WeatherDisplay:10.37,2013-02-15 20:30:00,
2013-02-15 13:35:00,37.8,14.4,30.35,ENE,64,10.1,13.8,38,0.00,OVC,OVC,0.02,336.0,WeatherDisplay:10.37,2013-02-15 20:35:00,
2013-02-15 13:40:00,37.4,13.5,30.37,NE,54,6.6,16.0,37,0.00,OVC,OVC,0.02,338.0,WeatherDisplay:10.37,2013-02-15 20:40:00,
2013-02-15 13:45:00,37.3,13.4,30.36,NE,42,6.3,12.6,37,0.00,OVC,OVC,0.02,710.0,WeatherDisplay:10.37,2013-02-15 20:45:00,
2013-02-15 13:50:00,36.8,12.9,30.36,East,92,9.0,14.9,37,0.00,OVC,OVC,0.02,265.0,WeatherDisplay:10.37,2013-02-15 20:50:00,
2013-02-15 13:55:00,36.6,12.7,30.37,NE,36,8.7,11.5,37,0.00,OVC,OVC,0.02,649.0,WeatherDisplay:10.37,2013-02-15 20:55:00,
2013-02-15 14:00:00,37.5,14.2,30.37,NE,38,3.2,10.3,38,0.00,OVC,OVC,0.02,615.0,WeatherDisplay:10.37,2013-02-15 21:00:00,
2013-02-15 14:05:00,38.1,13.5,30.37,NNE,32,10.8,15.0,36,0.00,BKN,BKN,0.02,585.0,WeatherDisplay:10.37,2013-02-15 21:05:00,
2013-02-15 14:10:00,38.0,14.0,30.37,ENE,59,2.8,10.3,37,0.00,BKN,BKN,0.02,550.0,WeatherDisplay:10.37,2013-02-15 21:10:00,
2013-02-15 14:15:00,37.9,13.9,30.37,ENE,60,7.9,12.6,37,0.00,BKN,BKN,0.02,137.0,WeatherDisplay:10.37,2013-02-15 21:15:00,
2013-02-15 14:20:00,37.4,12.8,30.38,NE,34,4.3,11.5,36,0.00,BKN,BKN,0.02,149.0,WeatherDisplay:10.37,2013-02-15 21:20:00,
2013-02-15 14:25:00,37.0,13.1,30.38,NNE,33,3.9,9.2,37,0.00,BKN,BKN,0.02,98.0,WeatherDisplay:10.37,2013-02-15 21:25:00,
2013-02-15 14:30:00,36.7,13.4,30.38,NNE,30,4.0,9.2,38,0.00,BKN,BKN,0.02,116.0,WeatherDisplay:10.37,2013-02-15 21:30:00,
2013-02-15 14:35:00,36.4,13.2,30.39,North,5,8.4,16.1,38,0.00,BKN,BKN,0.02,156.0,WeatherDisplay:10.37,2013-02-15 21:35:00,
2013-02-15 14:40:00,36.0,13.4,30.39,East,90,5.2,6.9,39,0.00,BKN,BKN,0.02,151.0,WeatherDisplay:10.37,2013-02-15 21:40:00,
2013-02-15 14:45:00,35.9,13.3,30.39,North,360,8.8,16.0,39,0.00,BKN,BKN,0.02,149.0,WeatherDisplay:10.37,2013-02-15 21:45:00,
2013-02-15 14:50:00,35.8,13.2,30.39,East,83,8.5,16.1,39,0.00,BKN,BKN,0.02,144.0,WeatherDisplay:10.37,2013-02-15 21:50:00,
2013-02-15 14:55:00,35.8,13.2,30.39,NNE,21,7.9,11.5,39,0.00,BKN,BKN,0.02,156.0,WeatherDisplay:10.37,2013-02-15 21:55:00,
2013-02-15 15:00:00,35.8,13.2,30.38,ESE,109,7.6,10.3,39,0.00,BKN,BKN,0.02,162.0,WeatherDisplay:10.37,2013-02-15 22:00:00,
2013-02-15 15:05:00,35.7,13.1,30.40,ENE,75,7.2,11.5,39,0.00,BKN,BKN,0.02,364.0,WeatherDisplay:10.37,2013-02-15 22:05:00,
2013-02-15 15:10:00,36.1,13.5,30.40,NE,56,7.7,12.6,39,0.00,BKN,BKN,0.02,163.0,WeatherDisplay:10.37,2013-02-15 22:10:00,
2013-02-15 15:15:00,36.1,12.9,30.40,NNE,32,6.2,13.0,38,0.00,BKN,BKN,0.02,461.0,WeatherDisplay:10.37,2013-02-15 22:15:00,
2013-02-15 15:20:00,36.3,13.1,30.40,NNE,28,6.5,11.5,38,0.00,BKN,BKN,0.02,436.0,WeatherDisplay:10.37,2013-02-15 22:20:00,
2013-02-15 15:25:00,36.8,13.5,30.38,North,360,3.9,10.3,38,0.00,BKN,BKN,0.02,397.0,WeatherDisplay:10.37,2013-02-15 22:25:00,
2013-02-15 15:30:00,37.3,12.7,30.38,ENE,67,9.9,13.8,36,0.00,BKN,BKN,0.02,403.0,WeatherDisplay:10.37,2013-02-15 22:30:00,
2013-02-15 15:35:00,37.4,12.8,30.38,NNE,29,6.6,11.5,36,0.00,BKN,BKN,0.02,399.0,WeatherDisplay:10.37,2013-02-15 22:35:00,
2013-02-15 15:40:00,37.5,12.9,30.38,NE,56,6.9,12.6,36,0.00,BKN,BKN,0.02,383.0,WeatherDisplay:10.37,2013-02-15 22:40:00,
2013-02-15 15:45:00,37.5,12.9,30.38,ENE,75,8.3,10.3,36,0.00,BKN,BKN,0.02,403.0,WeatherDisplay:10.37,2013-02-15 22:45:00,
2013-02-15 15:50:00,37.9,13.3,30.39,ENE,76,6.3,10.3,36,0.00,BKN,BKN,0.02,399.0,WeatherDisplay:10.37,2013-02-15 22:50:00,
2013-02-15 15:55:00,38.3,13.0,30.39,NE,41,7.3,17.3,35,0.00,BKN,BKN,0.02,403.0,WeatherDisplay:10.37,2013-02-15 22:55:00,
2013-02-15 16:00:00,38.2,12.9,30.39,ENE,65,7.9,11.5,35,0.00,BKN,BKN,0.02,390.0,WeatherDisplay:10.37,2013-02-15 23:00:00,
2013-02-15 16:05:00,38.3,13.6,30.39,NNE,30,5.0,12.6,36,0.00,BKN,BKN,0.02,357.0,WeatherDisplay:10.37,2013-02-15 23:05:00,
2013-02-15 16:10:00,38.0,15.8,30.39,East,101,7.0,12.6,40,0.00,BKN,BKN,0.02,338.0,WeatherDisplay:10.37,2013-02-15 23:10:00,
2013-02-15 16:15:00,37.1,16.1,30.41,SE,125,6.9,11.5,42,0.00,BKN,BKN,0.02,288.0,WeatherDisplay:10.37,2013-02-15 23:15:00,
2013-02-15 16:20:00,36.3,15.9,30.41,East,96,4.6,11.5,43,0.00,BKN,BKN,0.02,276.0,WeatherDisplay:10.37,2013-02-15 23:20:00,
2013-02-15 16:25:00,35.9,15.5,30.41,East,92,5.0,7.0,43,0.00,BKN,BKN,0.02,251.0,WeatherDisplay:10.37,2013-02-15 23:25:00,
2013-02-15 16:30:00,35.5,15.7,30.41,East,92,2.0,3.4,44,0.00,BKN,BKN,0.02,223.0,WeatherDisplay:10.37,2013-02-15 23:30:00,
2013-02-15 16:35:00,35.2,16.0,30.42,East,96,3.1,6.0,45,0.00,BKN,BKN,0.02,76.0,WeatherDisplay:10.37,2013-02-15 23:35:00,
2013-02-15 16:40:00,34.8,16.1,30.43,East,97,4.7,5.8,46,0.00,BKN,BKN,0.02,60.0,WeatherDisplay:10.37,2013-02-15 23:40:00,
2013-02-15 16:45:00,34.4,16.2,30.43,SE,133,5.7,9.2,47,0.00,BKN,BKN,0.02,51.0,WeatherDisplay:10.37,2013-02-15 23:45:00,
2013-02-15 16:50:00,34.1,16.4,30.43,SE,140,8.7,12.6,48,0.00,BKN,BKN,0.02,47.0,WeatherDisplay:10.37,2013-02-15 23:50:00,
2013-02-15 16:55:00,33.6,16.0,30.43,East,101,4.4,5.8,48,0.00,BKN,BKN,0.02,40.0,WeatherDisplay:10.37,2013-02-15 23:55:00,
2013-02-15 17:00:00,33.0,15.9,30.45,East,99,3.3,9.2,49,0.00,BKN,BKN,0.02,49.0,WeatherDisplay:10.37,2013-02-16 00:00:00,
2013-02-15 17:05:00,32.7,16.1,30.43,SE,130,2.4,4.6,50,0.00,BKN,BKN,0.02,32.0,WeatherDisplay:10.37,2013-02-16 00:05:00,
2013-02-15 17:10:00,32.5,16.4,30.43,SE,124,2.5,3.4,51,0.00,BKN,BKN,0.02,47.0,WeatherDisplay:10.37,2013-02-16 00:10:00,
2013-02-15 17:15:00,32.4,16.3,30.44,ESE,107,4.0,11.5,51,0.00,BKN,BKN,0.02,33.0,WeatherDisplay:10.37,2013-02-16 00:15:00,
2013-02-15 17:20:00,32.2,16.1,30.44,ESE,105,3.9,6.9,51,0.00,BKN,BKN,0.02,21.0,WeatherDisplay:10.37,2013-02-16 00:20:00,
2013-02-15 17:25:00,32.0,15.9,30.44,ESE,117,4.4,5.8,51,0.00,BKN,BKN,0.02,12.0,WeatherDisplay:10.37,2013-02-16 00:25:00,
2013-02-15 17:30:00,31.9,16.2,30.45,ESE,103,0.8,2.3,52,0.00,BKN,BKN,0.02,7.0,WeatherDisplay:10.37,2013-02-16 00:30:00,
2013-02-15 17:35:00,31.6,16.0,30.44,ESE,120,3.2,6.9,52,0.00,BKN,BKN,0.02,5.0,WeatherDisplay:10.37,2013-02-16 00:35:00,
2013-02-15 17:40:00,31.4,15.8,30.44,ESE,104,1.4,1.4,52,0.00,BKN,BKN,0.02,0.0,WeatherDisplay:10.37,2013-02-16 00:40:00,
2013-02-15 17:45:00,31.2,15.6,30.44,ESE,108,1.0,3.4,52,0.00,BKN,BKN,0.02,0.0,WeatherDisplay:10.37,2013-02-16 00:45:00,
2013-02-15 17:50:00,31.1,15.9,30.45,ESE,107,1.4,3.4,53,0.00,BKN,BKN,0.02,0.0,WeatherDisplay:10.37,2013-02-16 00:50:00,
2013-02-15 17:55:00,30.9,15.8,30.45,ESE,117,3.1,5.8,53,0.00,BKN,BKN,0.02,0.0,WeatherDisplay:10.37,2013-02-16 00:55:00,
2013-02-15 18:00:00,30.7,16.0,30.45,SE,124,1.3,5.0,54,0.00,BKN,BKN,0.02,0.0,WeatherDisplay:10.37,2013-02-16 01:00:00,
2013-02-15 18:05:00,30.5,15.8,30.45,ESE,114,2.3,3.4,54,0.00,BKN,BKN,0.02,0.0,WeatherDisplay:10.37,2013-02-16 01:05:00,
2013-02-15 18:10:00,30.3,16.0,30.47,SE,132,2.1,4.6,55,0.00,BKN,BKN,0.02,0.0,WeatherDisplay:10.37,2013-02-16 01:10:00,
2013-02-15 18:15:00,30.2,16.0,30.47,SE,131,1.5,3.4,55,0.00,BKN,BKN,0.02,0.0,WeatherDisplay:10.37,2013-02-16 01:15:00,
2013-02-15 18:20:00,30.0,16.2,30.47,SE,126,2.7,3.4,56,0.00,BKN,BKN,0.02,0.0,WeatherDisplay:10.37,2013-02-16 01:20:00,
2013-02-15 18:25:00,29.8,16.0,30.47,ESE,113,2.5,5.0,56,0.00,BKN,BKN,0.02,0.0,WeatherDisplay:10.37,2013-02-16 01:25:00,
2013-02-15 18:30:00,29.6,16.2,30.47,ESE,115,1.2,3.4,57,0.00,BKN,BKN,0.02,0.0,WeatherDisplay:10.37,2013-02-16 01:30:00,
2013-02-15 18:35:00,29.4,16.0,30.47,ESE,119,0.5,1.1,57,0.00,BKN,BKN,0.02,0.0,WeatherDisplay:10.37,2013-02-16 01:35:00,
2013-02-15 18:40:00,29.3,15.9,30.47,ESE,118,2.0,3.4,57,0.00,BKN,BKN,0.02,0.0,WeatherDisplay:10.37,2013-02-16 01:40:00,
2013-02-15 18:45:00,29.1,16.1,30.47,ESE,116,0.1,4.6,58,0.00,BKN,BKN,0.02,0.0,WeatherDisplay:10.37,2013-02-16 01:45:00,
2013-02-15 18:50:00,28.9,16.0,30.47,ESE,115,0.2,0.0,58,0.00,BKN,BKN,0.02,0.0,WeatherDisplay:10.37,2013-02-16 01:50:00,
2013-02-15 18:55:00,28.8,15.9,30.47,ESE,115,1.2,2.3,58,0.00,BKN,BKN,0.02,0.0,WeatherDisplay:10.37,2013-02-16 01:55:00,
2013-02-15 19:00:00,28.7,16.2,30.47,ESE,115,1.1,3.0,59,0.00,BKN,BKN,0.02,0.0,WeatherDisplay:10.37,2013-02-16 02:00:00,
2013-02-15 19:05:00,28.6,16.1,30.46,ESE,115,0.3,2.3,59,0.00,BKN,BKN,0.02,0.0,WeatherDisplay:10.37,2013-02-16 02:05:00,
2013-02-15 19:10:00,28.4,15.9,30.47,ESE,115,0.5,2.3,59,0.00,BKN,BKN,0.02,0.0,WeatherDisplay:10.37,2013-02-16 02:10:00,
2013-02-15 19:15:00,28.3,15.8,30.47,ESE,115,0.6,3.4,59,0.00,BKN,BKN,0.02,0.0,WeatherDisplay:10.37,2013-02-16 02:15:00,
2013-02-15 19:20:00,28.3,16.2,30.47,ESE,115,0.1,3.0,60,0.00,BKN,BKN,0.02,0.0,WeatherDisplay:10.37,2013-02-16 02:20:00,
2013-02-15 19:25:00,28.2,16.1,30.47,ESE,116,0.0,0.0,60,0.00,BKN,BKN,0.02,0.0,WeatherDisplay:10.37,2013-02-16 02:25:00,
2013-02-15 19:30:00,28.1,16.0,30.47,ESE,115,0.0,2.3,60,0.00,BKN,BKN,0.02,0.0,WeatherDisplay:10.37,2013-02-16 02:30:00,
2013-02-15 19:35:00,28.0,15.9,30.47,ESE,115,0.6,2.3,60,0.00,BKN,BKN,0.02,0.0,WeatherDisplay:10.37,2013-02-16 02:35:00,
2013-02-15 19:40:00,27.9,15.8,30.47,ESE,116,0.0,2.3,60,0.00,BKN,BKN,0.02,0.0,WeatherDisplay:10.37,2013-02-16 02:40:00,
2013-02-15 19:45:00,27.8,16.1,30.46,ESE,116,1.1,2.3,61,0.00,BKN,BKN,0.02,0.0,WeatherDisplay:10.37,2013-02-16 02:45:00,
2013-02-15 19:50:00,27.8,16.1,30.46,ESE,122,1.9,3.4,61,0.00,BKN,BKN,0.02,0.0,WeatherDisplay:10.37,2013-02-16 02:50:00,
2013-02-15 19:55:00,27.7,16.0,30.46,SE,137,4.0,6.9,61,0.00,BKN,BKN,0.02,0.0,WeatherDisplay:10.37,2013-02-16 02:55:00,
2013-02-15 20:00:00,27.6,16.3,30.46,SE,142,2.4,3.4,62,0.00,BKN,BKN,0.02,0.0,WeatherDisplay:10.37,2013-02-16 03:00:00,
2013-02-15 20:05:00,27.6,16.3,30.44,SE,144,1.0,3.4,62,0.00,BKN,BKN,0.02,0.0,WeatherDisplay:10.37,2013-02-16 03:05:00,
2013-02-15 20:10:00,27.4,16.4,30.44,SE,145,2.8,5.0,63,0.00,BKN,BKN,0.02,0.0,WeatherDisplay:10.37,2013-02-16 03:10:00,
2013-02-15 20:15:00,27.3,16.4,30.44,SE,133,4.3,9.2,63,0.00,BKN,BKN,0.02,0.0,WeatherDisplay:10.37,2013-02-16 03:15:00,
2013-02-15 20:20:00,27.2,16.6,30.44,SSE,157,2.3,6.9,64,0.00,BKN,BKN,0.02,0.0,WeatherDisplay:10.37,2013-02-16 03:20:00,
2013-02-15 20:25:00,27.1,16.9,30.43,SSE,150,0.6,6.9,65,0.00,BKN,BKN,0.02,0.0,WeatherDisplay:10.37,2013-02-16 03:25:00,
2013-02-15 20:30:00,27.1,17.2,30.43,SSE,148,2.8,3.4,66,0.00,BKN,BKN,0.02,0.0,WeatherDisplay:10.37,2013-02-16 03:30:00,
2013-02-15 20:35:00,27.0,17.1,30.43,SE,146,2.2,3.4,66,0.00,BKN,BKN,0.02,0.0,WeatherDisplay:10.37,2013-02-16 03:35:00,
2013-02-15 20:40:00,26.9,17.4,30.43,SE,141,1.8,3.4,67,0.00,BKN,BKN,0.02,0.0,WeatherDisplay:10.37,2013-02-16 03:40:00,
2013-02-15 20:45:00,26.7,17.2,30.42,SE,136,3.0,4.6,67,0.00,BKN,BKN,0.02,0.0,WeatherDisplay:10.37,2013-02-16 03:45:00,
2013-02-15 20:50:00,26.5,17.4,30.42,SE,141,4.7,9.2,68,0.00,BKN,BKN,0.02,0.0,WeatherDisplay:10.37,2013-02-16 03:50:00,
2013-02-15 20:55:00,26.3,17.2,30.43,SE,140,3.2,3.4,68,0.00,BKN,BKN,0.02,0.0,WeatherDisplay:10.37,2013-02-16 03:55:00,
2013-02-15 21:00:00,26.1,17.3,30.43,SE,134,4.8,9.2,69,0.00,BKN,BKN,0.02,0.0,WeatherDisplay:10.37,2013-02-16 04:00:00,
2013-02-15 21:05:00,26.0,17.2,30.39,SSE,148,4.2,5.0,69,0.00,BKN,BKN,0.02,0.0,WeatherDisplay:10.37,2013-02-16 04:05:00,
2013-02-15 21:10:00,25.8,17.4,30.39,SE,145,3.1,4.6,70,0.00,BKN,BKN,0.02,0.0,WeatherDisplay:10.37,2013-02-16 04:10:00,
2013-02-15 21:15:00,25.7,17.3,30.39,SE,145,0.1,2.3,70,0.00,BKN,BKN,0.02,0.0,WeatherDisplay:10.37,2013-02-16 04:15:00,
2013-02-15 21:20:00,25.5,17.1,30.39,SE,145,0.9,2.3,70,0.00,BKN,BKN,0.02,0.0,WeatherDisplay:10.37,2013-02-16 04:20:00,
2013-02-15 21:25:00,25.4,17.0,30.40,SE,145,3.3,4.6,70,0.00,BKN,BKN,0.02,0.0,WeatherDisplay:10.37,2013-02-16 04:25:00,
2013-02-15 21:30:00,25.3,16.9,30.40,SE,145,2.7,4.6,70,0.00,BKN,BKN,0.02,0.0,WeatherDisplay:10.37,2013-02-16 04:30:00,
2013-02-15 21:35:00,25.2,16.8,30.41,SE,145,2.9,3.4,70,0.00,BKN,BKN,0.02,0.0,WeatherDisplay:10.37,2013-02-16 04:35:00,
2013-02-15 21:40:00,25.2,17.1,30.40,SE,145,3.0,3.4,71,0.00,BKN,BKN,0.02,0.0,WeatherDisplay:10.37,2013-02-16 04:40:00,
2013-02-15 21:45:00,25.1,17.0,30.40,SE,145,0.6,2.3,71,0.00,BKN,BKN,0.02,0.0,WeatherDisplay:10.37,2013-02-16 04:45:00,
2013-02-15 21:50:00,25.1,17.0,30.40,SE,145,1.1,3.4,71,0.00,BKN,BKN,0.02,0.0,WeatherDisplay:10.37,2013-02-16 04:50:00,
2013-02-15 21:55:00,25.0,16.9,30.40,SE,145,0.2,2.3,71,0.00,BKN,BKN,0.02,0.0,WeatherDisplay:10.37,2013-02-16 04:55:00,
2013-02-15 22:00:00,25.0,16.9,30.39,SE,145,1.1,4.0,71,0.00,BKN,BKN,0.02,0.0,WeatherDisplay:10.37,2013-02-16 05:00:00,
2013-02-15 22:05:00,24.9,16.8,30.35,SE,146,1.9,3.4,71,0.00,SCT,SCT,0.02,0.0,WeatherDisplay:10.37,2013-02-16 05:05:00,
2013-02-15 22:10:00,24.9,16.8,30.35,SSE,147,0.8,2.3,71,0.00,SCT,SCT,0.02,0.0,WeatherDisplay:10.37,2013-02-16 05:10:00,
2013-02-15 22:15:00,24.9,16.8,30.35,SE,146,0.0,0.0,71,0.00,SCT,SCT,0.02,0.0,WeatherDisplay:10.37,2013-02-16 05:15:00,
2013-02-15 22:20:00,24.9,16.8,30.35,SE,146,0.2,1.1,71,0.00,SCT,SCT,0.02,0.0,WeatherDisplay:10.37,2013-02-16 05:20:00,
2013-02-15 22:23:00,24.8,16.7,30.35,SSE,147,0.5,2.3,71,0.00,SCT,SCT,0.02,0.0,WeatherDisplay:10.37,2013-02-16 05:23:00,
2013-02-15 22:28:00,24.8,16.7,30.34,SSE,156,3.0,4.6,71,0.00,SCT,SCT,0.02,0.0,WeatherDisplay:10.37,2013-02-16 05:28:00,
2013-02-15 22:33:00,24.8,16.7,30.35,SSW,194,0.8,2.3,71,0.00,SCT,SCT,0.02,0.0,WeatherDisplay:10.37,2013-02-16 05:33:00,
2013-02-15 22:38:00,24.8,16.7,30.34,SSW,194,0.3,1.1,71,0.00,SCT,SCT,0.02,0.0,WeatherDisplay:10.37,2013-02-16 05:38:00,
2013-02-15 22:43:00,24.7,16.6,30.34,SSW,195,1.6,3.4,71,0.00,SCT,SCT,0.02,0.0,WeatherDisplay:10.37,2013-02-16 05:43:00,
2013-02-15 22:48:00,24.6,16.5,30.34,SSW,196,0.7,3.0,71,0.00,SCT,SCT,0.02,0.0,WeatherDisplay:10.37,2013-02-16 05:48:00,
2013-02-15 22:53:00,24.5,16.1,30.35,SSW,195,0.5,2.3,70,0.00,SCT,SCT,0.02,0.0,WeatherDisplay:10.37,2013-02-16 05:53:00,
2013-02-15 22:58:00,24.4,16.0,30.34,SSW,195,0.5,2.3,70,0.00,SCT,SCT,0.02,0.0,WeatherDisplay:10.37,2013-02-16 05:58:00,
2013-02-15 23:03:00,24.3,15.9,30.34,SSW,195,0.9,2.3,70,0.00,FEW,FEW,0.02,0.0,WeatherDisplay:10.37,2013-02-16 06:03:00,
2013-02-15 23:08:00,24.2,15.8,30.32,SSW,196,0.5,2.3,70,0.00,FEW,FEW,0.02,0.0,WeatherDisplay:10.37,2013-02-16 06:08:00,
2013-02-15 23:13:00,24.1,15.7,30.32,SSW,196,1.4,3.4,70,0.00,FEW,FEW,0.02,0.0,WeatherDisplay:10.37,2013-02-16 06:13:00,
2013-02-15 23:18:00,24.0,15.6,30.31,SSW,196,1.5,3.4,70,0.00,FEW,FEW,0.02,0.0,WeatherDisplay:10.37,2013-02-16 06:18:00,
2013-02-15 23:23:00,24.0,15.6,30.32,SSW,196,1.2,2.3,70,0.00,FEW,FEW,0.02,0.0,WeatherDisplay:10.37,2013-02-16 06:23:00,
2013-02-15 23:28:00,23.9,17.4,30.31,SSW,195,0.0,2.3,76,0.00,FEW,FEW,0.02,0.0,WeatherDisplay:10.37,2013-02-16 06:28:00,
2013-02-15 23:33:00,23.8,15.4,30.31,SSW,196,1.4,3.4,70,0.00,FEW,FEW,0.02,0.0,WeatherDisplay:10.37,2013-02-16 06:33:00,
2013-02-15 23:38:00,23.7,15.3,30.31,SSW,196,0.4,2.3,70,0.00,FEW,FEW,0.02,0.0,WeatherDisplay:10.37,2013-02-16 06:38:00,
2013-02-15 23:43:00,23.7,15.3,30.31,SSW,211,1.0,3.4,70,0.00,FEW,FEW,0.02,0.0,WeatherDisplay:10.37,2013-02-16 06:43:00,
2013-02-15 23:48:00,23.6,15.6,30.31,SSW,203,2.9,4.6,71,0.00,FEW,FEW,0.02,0.0,WeatherDisplay:10.37,2013-02-16 06:48:00,
2013-02-15 23:53:00,23.6,15.6,30.30,SSW,202,1.8,4.6,71,0.00,FEW,FEW,0.02,0.0,WeatherDisplay:10.37,2013-02-16 06:53:00,
2013-02-15 23:58:00,23.5,15.5,30.30,SSW,200,0.8,2.3,71,0.00,FEW,FEW,0.02,0.0,WeatherDisplay:10.37,2013-02-16 06:58:00,